createdAt,value
2019-05-07T00:02:09.338Z,66.00
2019-05-07T00:05:14.438Z,66.20
2019-05-07T00:08:19.143Z,66.30
2019-05-07T00:11:23.942Z,66.20
2019-05-07T00:14:29.265Z,66.40
2019-05-07T00:17:34.497Z,66.20
2019-05-07T00:20:39.314Z,66.60
2019-05-07T00:23:44.477Z,66.30
2019-05-07T00:26:49.375Z,66.60
2019-05-07T00:29:54.535Z,66.70
2019-05-07T00:32:59.282Z,66.90
2019-05-07T00:36:32.229Z,67.40
2019-05-07T00:40:02.694Z,67.30
2019-05-07T00:43:22.467Z,67.30
2019-05-07T00:46:29.531Z,66.70
2019-05-07T00:49:34.827Z,65.80
2019-05-07T00:52:39.898Z,66.20
2019-05-07T00:55:45.096Z,66.20
2019-05-07T00:58:52.531Z,66.60
2019-05-07T01:01:57.211Z,66.90
2019-05-07T01:05:03.069Z,67.40
2019-05-07T01:08:08.102Z,67.80
2019-05-07T01:11:13.341Z,67.80
2019-05-07T01:14:18.359Z,68.90
2019-05-07T01:17:23.505Z,69.10
2019-05-07T01:20:28.690Z,69.00
2019-05-07T01:23:33.717Z,67.90
2019-05-07T01:26:38.833Z,68.20
2019-05-07T01:29:43.904Z,68.70
2019-05-07T01:32:57.010Z,68.90
2019-05-07T01:36:09.692Z,69.20
2019-05-07T01:39:14.691Z,70.10
2019-05-07T01:42:22.028Z,70.80
2019-05-07T01:45:26.813Z,71.10
2019-05-07T01:48:32.421Z,71.70
2019-05-07T01:51:39.029Z,73.00
2019-05-07T01:54:47.108Z,72.40
2019-05-07T01:57:52.312Z,73.40
2019-05-07T02:00:57.440Z,72.60
2019-05-07T02:04:22.292Z,72.60
2019-05-07T02:07:40.053Z,72.60
2019-05-07T02:10:53.633Z,72.60
2019-05-07T02:13:58.462Z,72.70
2019-05-07T02:17:03.281Z,72.50
2019-05-07T02:20:08.641Z,72.60
2019-05-07T02:23:13.733Z,73.30
2019-05-07T02:26:18.829Z,73.90
2019-05-07T02:29:24.029Z,74.30
2019-05-07T02:32:29.194Z,74.80
2019-05-07T02:35:34.074Z,75.90
2019-05-07T02:39:04.060Z,75.50
2019-05-07T02:42:09.110Z,74.90
2019-05-07T02:45:26.914Z,74.40
2019-05-07T02:48:36.568Z,74.20
2019-05-07T02:51:56.955Z,74.00
2019-05-07T02:55:13.662Z,73.60
2019-05-07T02:58:18.856Z,73.50
2019-05-07T03:01:24.058Z,73.40
2019-05-07T03:04:28.936Z,73.50
2019-05-07T03:07:33.939Z,73.10
2019-05-07T03:10:39.222Z,73.40
2019-05-07T03:13:44.358Z,73.20
2019-05-07T03:16:49.792Z,73.80
2019-05-07T03:19:57.538Z,73.80
2019-05-07T03:23:03.221Z,73.80
2019-05-07T03:26:28.921Z,74.00
2019-05-07T03:29:34.055Z,73.90
2019-05-07T03:32:47.471Z,74.00
2019-05-07T03:35:56.128Z,74.00
2019-05-07T03:38:59.221Z,74.00
2019-05-07T03:42:03.990Z,73.80
2019-05-07T03:45:33.720Z,74.10
2019-05-07T03:48:39.411Z,74.50
2019-05-07T03:51:44.488Z,74.60
2019-05-07T03:54:49.593Z,74.80
2019-05-07T03:57:54.732Z,75.20
2019-05-07T04:00:59.905Z,75.50
2019-05-07T04:04:04.895Z,75.60
2019-05-07T04:07:09.901Z,75.30
2019-05-07T04:10:16.697Z,75.40
2019-05-07T04:13:23.811Z,74.90
2019-05-07T04:16:28.689Z,74.20
2019-05-07T04:19:33.749Z,73.40
2019-05-07T04:22:39.011Z,73.50
2019-05-07T04:25:55.393Z,73.80
2019-05-07T04:29:06.445Z,74.20
2019-05-07T04:32:14.340Z,74.90
2019-05-07T04:35:33.404Z,75.70
2019-05-07T04:38:38.834Z,76.40
2019-05-07T04:41:43.829Z,76.40
2019-05-07T04:44:49.146Z,76.20
2019-05-07T04:47:54.085Z,76.10
2019-05-07T04:51:03.581Z,75.60
2019-05-07T04:54:07.769Z,74.50
2019-05-07T04:57:33.012Z,73.50
2019-05-07T05:00:38.357Z,72.90
2019-05-07T05:03:43.849Z,72.50
2019-05-07T05:06:49.052Z,72.40
2019-05-07T05:09:54.122Z,72.40
2019-05-07T05:12:59.946Z,72.30
2019-05-07T05:16:24.141Z,72.20
2019-05-07T05:19:29.280Z,71.60
2019-05-07T05:22:42.509Z,71.10
2019-05-07T05:25:47.586Z,70.80
2019-05-07T05:28:52.644Z,70.40
2019-05-07T05:31:57.543Z,70.00
2019-05-07T05:35:08.733Z,69.50
2019-05-07T05:38:13.970Z,69.00
2019-05-07T05:41:18.870Z,69.50
2019-05-07T05:44:32.054Z,69.40
2019-05-07T05:47:37.376Z,69.00
2019-05-07T05:50:49.637Z,69.50
2019-05-07T05:54:16.466Z,69.10
2019-05-07T05:57:46.576Z,69.10
2019-05-07T06:01:19.522Z,69.10
2019-05-07T06:04:46.140Z,68.90
2019-05-07T06:07:59.841Z,68.80
2019-05-07T06:11:24.634Z,68.50
2019-05-07T06:14:42.287Z,67.40
2019-05-07T06:18:17.650Z,67.30
2019-05-07T06:21:44.551Z,67.10
2019-05-07T06:25:14.473Z,66.90
2019-05-07T06:28:17.823Z,66.80
2019-05-07T06:31:22.932Z,65.90
2019-05-07T06:34:27.928Z,64.70
2019-05-07T06:37:33.092Z,64.20
2019-05-07T06:40:57.472Z,63.20
2019-05-07T06:44:07.079Z,61.90
2019-05-07T06:47:13.050Z,61.00
2019-05-07T06:50:18.277Z,61.10
2019-05-07T06:53:23.501Z,55.90
2019-05-07T06:56:28.630Z,52.20
2019-05-07T06:59:47.829Z,50.80
2019-05-07T07:02:57.720Z,53.40
2019-05-07T07:06:17.837Z,49.80
2019-05-07T07:09:44.416Z,48.10
2019-05-07T07:12:49.546Z,48.00
2019-05-07T07:15:54.492Z,48.00
2019-05-07T07:18:59.971Z,48.40
2019-05-07T07:22:05.124Z,47.50
2019-05-07T07:25:11.897Z,45.20
2019-05-07T07:28:16.970Z,45.20
2019-05-07T07:31:32.565Z,41.60
2019-05-07T07:34:45.610Z,36.20
2019-05-07T07:37:52.902Z,29.80
2019-05-07T07:41:16.414Z,24.60
2019-05-07T07:44:22.321Z,22.20
2019-05-07T07:47:27.350Z,21.30
2019-05-07T07:50:33.021Z,19.10
2019-05-07T07:53:38.488Z,18.90
2019-05-07T07:56:55.687Z,17.90
2019-05-07T08:00:14.433Z,17.20
2019-05-07T08:03:19.821Z,15.70
2019-05-07T08:06:26.929Z,15.90
2019-05-07T08:09:32.923Z,16.60
2019-05-07T08:12:38.196Z,17.30
2019-05-07T08:15:43.151Z,16.80
2019-05-07T08:18:48.436Z,17.20
2019-05-07T08:21:53.828Z,18.50
2019-05-07T08:24:58.783Z,20.70
2019-05-07T08:28:03.802Z,22.30
2019-05-07T08:31:27.684Z,23.60
2019-05-07T08:34:42.699Z,25.30
2019-05-07T08:37:48.088Z,24.70
2019-05-07T08:40:53.360Z,23.20
2019-05-07T08:44:15.231Z,21.60
2019-05-07T08:47:22.705Z,22.50
2019-05-07T08:50:27.377Z,22.60
2019-05-07T08:53:32.876Z,23.60
2019-05-07T08:56:39.154Z,24.10
2019-05-07T08:59:57.607Z,24.40
2019-05-07T09:02:52.426Z,24.10
2019-05-07T09:05:57.674Z,23.90
2019-05-07T09:09:04.535Z,24.30
2019-05-07T09:12:09.512Z,24.30
2019-05-07T09:15:16.283Z,24.70
2019-05-07T09:18:22.943Z,24.90
2019-05-07T09:21:28.011Z,24.30
2019-05-07T09:24:33.546Z,24.60
2019-05-07T09:27:44.179Z,24.20
2019-05-07T09:31:04.933Z,24.40
2019-05-07T09:34:11.714Z,24.50
2019-05-07T09:37:22.645Z,24.70
2019-05-07T09:40:27.616Z,25.10
2019-05-07T09:43:32.693Z,25.60
2019-05-07T09:46:37.747Z,25.50
2019-05-07T09:49:44.444Z,25.40
2019-05-07T09:52:51.848Z,26.30
2019-05-07T09:55:56.946Z,25.00
2019-05-07T09:59:02.333Z,25.40
2019-05-07T10:02:08.239Z,24.90
2019-05-07T10:05:13.953Z,24.50
2019-05-07T10:08:19.165Z,25.10
2019-05-07T10:11:33.882Z,25.50
2019-05-07T10:14:41.947Z,25.30
2019-05-07T10:17:54.195Z,25.70
2019-05-07T10:20:59.713Z,26.20
2019-05-07T10:24:04.993Z,26.10
2019-05-07T10:27:12.493Z,26.90
2019-05-07T10:30:17.510Z,26.20
2019-05-07T10:33:22.961Z,25.80
2019-05-07T10:36:28.163Z,26.30
2019-05-07T10:39:33.512Z,26.20
2019-05-07T10:42:38.674Z,26.00
2019-05-07T10:45:54.834Z,26.70
2019-05-07T10:49:06.145Z,26.70
2019-05-07T10:52:12.558Z,26.80
2019-05-07T10:55:17.523Z,26.30
2019-05-07T10:58:22.620Z,26.40
2019-05-07T11:01:45.736Z,26.10
2019-05-07T11:04:53.067Z,26.20
2019-05-07T11:07:57.631Z,26.40
2019-05-07T11:11:02.941Z,26.40
2019-05-07T11:14:08.337Z,25.90
2019-05-07T11:17:26.377Z,25.70
2019-05-07T11:20:45.657Z,25.70
2019-05-07T11:23:39.422Z,25.90
2019-05-07T11:26:44.471Z,25.30
2019-05-07T11:29:49.474Z,26.20
2019-05-07T11:32:55.277Z,26.20
2019-05-07T11:36:02.049Z,25.60
2019-05-07T11:39:07.916Z,25.80
2019-05-07T11:42:42.686Z,26.50
2019-05-07T11:46:02.127Z,26.00
2019-05-07T11:49:22.840Z,26.30
2019-05-07T11:52:35.592Z,26.20
2019-05-07T11:55:41.919Z,25.80
2019-05-07T11:58:46.744Z,25.00
2019-05-07T12:01:56.453Z,24.60
2019-05-07T12:05:01.969Z,25.00
2019-05-07T12:08:07.477Z,25.50
2019-05-07T12:11:12.464Z,25.50
2019-05-07T12:14:27.950Z,25.40
2019-05-07T12:17:24.277Z,25.00
2019-05-07T12:20:29.773Z,25.30
2019-05-07T12:23:34.809Z,25.40
2019-05-07T12:26:41.747Z,25.20
2019-05-07T12:29:46.619Z,25.70
2019-05-07T12:33:08.318Z,25.70
2019-05-07T12:36:14.597Z,25.30
2019-05-07T12:39:21.810Z,25.40
2019-05-07T12:42:26.355Z,25.30
2019-05-07T12:45:31.597Z,25.60
2019-05-07T12:48:36.730Z,26.50
2019-05-07T12:51:49.022Z,26.00
2019-05-07T12:55:04.392Z,26.10
2019-05-07T12:58:09.715Z,25.90
2019-05-07T13:01:23.562Z,26.00
2019-05-07T13:04:29.537Z,26.10
2019-05-07T13:08:02.642Z,26.70
2019-05-07T13:11:07.753Z,25.10
2019-05-07T13:14:12.765Z,25.30
2019-05-07T13:17:17.904Z,25.50
2019-05-07T13:20:23.424Z,26.00
2019-05-07T13:23:28.488Z,26.10
2019-05-07T13:26:33.826Z,26.60
2019-05-07T13:29:38.882Z,26.50
2019-05-07T13:32:48.192Z,26.70
2019-05-07T13:35:53.315Z,26.10
2019-05-07T13:39:23.326Z,26.00
2019-05-07T13:42:56.075Z,26.50
2019-05-07T13:46:12.068Z,26.10
2019-05-07T13:49:18.395Z,26.10
2019-05-07T13:52:24.801Z,26.70
2019-05-07T13:55:32.255Z,26.70
2019-05-07T13:58:36.715Z,26.70
2019-05-07T14:02:07.195Z,26.60
2019-05-07T14:05:14.322Z,26.10
2019-05-07T14:08:19.797Z,26.40
2019-05-07T14:11:25.708Z,26.70
2019-05-07T14:14:34.138Z,26.90
2019-05-07T14:17:37.820Z,26.50
2019-05-07T14:20:43.066Z,26.60
2019-05-07T14:23:48.174Z,27.20
2019-05-07T14:26:54.970Z,26.90
2019-05-07T14:30:02.496Z,26.90
2019-05-07T14:33:13.268Z,27.10
2019-05-07T14:36:22.421Z,27.10
2019-05-07T14:39:27.752Z,27.20
2019-05-07T14:42:38.405Z,27.30
2019-05-07T14:45:43.668Z,27.10
2019-05-07T14:48:49.144Z,27.10
2019-05-07T14:51:54.230Z,27.20
2019-05-07T14:54:59.513Z,26.60
2019-05-07T14:58:05.797Z,26.80
2019-05-07T15:01:11.775Z,26.70
2019-05-07T15:04:16.758Z,26.80
2019-05-07T15:07:22.591Z,27.10
2019-05-07T15:10:27.827Z,26.70
2019-05-07T15:13:33.245Z,26.70
2019-05-07T15:16:38.723Z,26.60
2019-05-07T15:19:44.132Z,26.80
2019-05-07T15:23:04.178Z,27.10
2019-05-07T15:26:09.121Z,27.30
2019-05-07T15:29:15.267Z,27.70
2019-05-07T15:32:21.818Z,27.50
2019-05-07T15:35:27.005Z,27.60
2019-05-07T15:38:32.453Z,27.70
2019-05-07T15:41:37.434Z,27.90
2019-05-07T15:44:43.221Z,28.50
2019-05-07T15:47:50.245Z,28.40
2019-05-07T15:50:55.532Z,28.90
2019-05-07T15:54:03.389Z,28.80
2019-05-07T15:57:13.741Z,28.60
2019-05-07T16:00:21.747Z,28.60
2019-05-07T16:03:39.826Z,29.00
2019-05-07T16:06:44.796Z,29.50
2019-05-07T16:09:49.833Z,29.70
2019-05-07T16:12:55.360Z,29.40
2019-05-07T16:16:02.243Z,29.20
2019-05-07T16:19:15.192Z,29.30
2019-05-07T16:22:28.365Z,30.50
2019-05-07T16:25:33.308Z,31.30
2019-05-07T16:28:38.225Z,31.70
2019-05-07T16:31:44.270Z,31.60
2019-05-07T16:34:49.525Z,31.80
2019-05-07T16:37:54.516Z,32.10
2019-05-07T16:40:59.538Z,32.60
2019-05-07T16:44:04.831Z,33.10
2019-05-07T16:47:12.182Z,33.70
2019-05-07T16:50:18.955Z,34.10
2019-05-07T16:53:29.767Z,34.70
2019-05-07T16:56:30.724Z,35.10
2019-05-07T16:59:35.813Z,35.80
2019-05-07T17:02:44.588Z,36.20
2019-05-07T17:05:49.778Z,36.60
2019-05-07T17:09:02.595Z,36.90
2019-05-07T17:12:09.493Z,36.70
2019-05-07T17:15:15.568Z,37.40
2019-05-07T17:18:22.142Z,37.60
2019-05-07T17:21:27.317Z,37.60
2019-05-07T17:24:32.972Z,38.30
2019-05-07T17:27:38.216Z,38.70
2019-05-07T17:30:43.180Z,38.80
2019-05-07T17:33:48.249Z,39.00
2019-05-07T17:36:53.270Z,39.20
2019-05-07T17:39:58.315Z,39.20
2019-05-07T17:43:03.484Z,39.20
2019-05-07T17:46:08.632Z,39.60
2019-05-07T17:49:13.676Z,40.10
2019-05-07T17:52:18.787Z,40.30
2019-05-07T17:55:24.001Z,40.60
2019-05-07T17:58:28.847Z,41.20
2019-05-07T18:02:02.178Z,42.10
2019-05-07T18:05:08.274Z,42.30
2019-05-07T18:08:13.617Z,42.30
2019-05-07T18:11:23.665Z,42.30
2019-05-07T18:14:25.483Z,42.40
2019-05-07T18:17:45.876Z,42.40
2019-05-07T18:20:50.854Z,42.40
2019-05-07T18:23:55.983Z,42.40
2019-05-07T18:27:01.989Z,42.50
2019-05-07T18:30:07.626Z,42.60
2019-05-07T18:33:41.763Z,42.80
2019-05-07T18:36:48.507Z,42.80
2019-05-07T18:39:53.604Z,42.90
2019-05-07T18:42:58.696Z,43.00
2019-05-07T18:46:04.347Z,43.20
2019-05-07T18:49:09.422Z,43.40
2019-05-07T18:52:14.990Z,43.60
2019-05-07T18:55:22.454Z,43.50
2019-05-07T18:58:27.437Z,43.50
2019-05-07T19:01:34.259Z,43.70
2019-05-07T19:04:39.501Z,43.90
2019-05-07T19:07:45.215Z,44.10
2019-05-07T19:10:52.124Z,44.30
2019-05-07T19:13:56.959Z,44.40
2019-05-07T19:17:03.162Z,45.00
2019-05-07T19:20:08.929Z,45.00
2019-05-07T19:23:13.908Z,45.60
2019-05-07T19:26:18.948Z,46.80
2019-05-07T19:29:24.049Z,47.10
2019-05-07T19:32:28.980Z,47.00
2019-05-07T19:35:34.297Z,47.40
2019-05-07T19:38:41.872Z,47.80
2019-05-07T19:41:46.426Z,47.80
2019-05-07T19:44:51.961Z,48.00
2019-05-07T19:47:57.104Z,48.30
2019-05-07T19:51:02.930Z,48.30
2019-05-07T19:54:08.152Z,48.50
2019-05-07T19:57:21.089Z,48.80
2019-05-07T20:00:26.906Z,48.90
2019-05-07T20:03:32.000Z,49.60
2019-05-07T20:06:37.302Z,49.30
2019-05-07T20:09:42.872Z,49.80
2019-05-07T20:12:48.062Z,49.90
2019-05-07T20:15:58.427Z,49.70
2019-05-07T20:19:04.010Z,50.00
2019-05-07T20:22:09.077Z,50.20
2019-05-07T20:25:18.972Z,50.20
2019-05-07T20:28:21.795Z,50.60
2019-05-07T20:31:26.807Z,50.90
2019-05-07T20:34:33.249Z,51.10
2019-05-07T20:37:38.574Z,51.10
2019-05-07T20:40:43.448Z,51.00
2019-05-07T20:43:48.548Z,51.30
2019-05-07T20:46:53.836Z,51.50
2019-05-07T20:49:59.057Z,51.50
2019-05-07T20:53:04.141Z,51.70
2019-05-07T20:56:09.403Z,51.90
2019-05-07T20:59:15.497Z,51.90
2019-05-07T21:02:22.543Z,52.10
2019-05-07T21:05:27.375Z,52.00
2019-05-07T21:08:32.732Z,52.00
2019-05-07T21:11:37.957Z,52.20
2019-05-07T21:14:42.934Z,53.00
2019-05-07T21:17:47.824Z,52.30
2019-05-07T21:20:53.206Z,52.40
2019-05-07T21:23:58.221Z,52.30
2019-05-07T21:27:03.237Z,52.20
2019-05-07T21:30:08.488Z,52.40
2019-05-07T21:33:13.555Z,52.40
2019-05-07T21:36:18.753Z,52.50
2019-05-07T21:39:23.832Z,52.60
2019-05-07T21:42:28.835Z,52.50
2019-05-07T21:45:33.947Z,52.40
2019-05-07T21:48:39.028Z,52.50
2019-05-07T21:51:44.070Z,52.60
2019-05-07T21:54:58.012Z,52.70
2019-05-07T21:58:22.995Z,52.90
2019-05-07T22:01:35.329Z,52.90
2019-05-07T22:04:42.131Z,53.10
2019-05-07T22:07:47.255Z,53.00
2019-05-07T22:10:52.241Z,52.90
2019-05-07T22:13:57.361Z,52.80
2019-05-07T22:17:02.427Z,53.00
2019-05-07T22:20:07.957Z,53.10
2019-05-07T22:23:12.835Z,53.00
2019-05-07T22:26:22.940Z,53.40
2019-05-07T22:29:24.595Z,53.40
2019-05-07T22:32:54.514Z,53.40
2019-05-07T22:36:01.710Z,53.50
2019-05-07T22:39:07.720Z,53.50
2019-05-07T22:42:12.922Z,53.50
2019-05-07T22:45:18.004Z,53.80
2019-05-07T22:48:23.018Z,53.90
2019-05-07T22:51:28.081Z,54.00
2019-05-07T22:54:33.160Z,54.20
2019-05-07T22:57:59.060Z,54.50
2019-05-07T23:01:09.770Z,54.70
2019-05-07T23:04:14.869Z,55.00
2019-05-07T23:07:22.145Z,55.30
2019-05-07T23:10:26.449Z,55.30
2019-05-07T23:13:31.935Z,55.70
2019-05-07T23:16:36.633Z,56.00
2019-05-07T23:19:41.976Z,56.10
2019-05-07T23:22:46.878Z,56.30
2019-05-07T23:25:52.362Z,56.60
2019-05-07T23:28:58.136Z,57.10
2019-05-07T23:32:03.345Z,57.70
2019-05-07T23:35:08.617Z,57.90
2019-05-07T23:38:15.853Z,58.10
2019-05-07T23:41:29.623Z,58.60
2019-05-07T23:44:34.651Z,58.90
2019-05-07T23:47:39.787Z,59.60
2019-05-07T23:50:44.923Z,60.80
2019-05-07T23:53:51.891Z,60.20
2019-05-07T23:57:05.962Z,61.30
